Main page
METAR-TAF:

METAR-TAF

Airports :

Istrana Air Base

Treviso, Italy

latitude: 45-41N, longitude: 012-06E, elevation: 45 m

Current weather observation

The report was made 44 minutes ago, at 22:55 UTC
Temperature 6°C
Humidity 81%
Pressure 1020 hPa
Visibility: 6000 m
Broken clouds at a height of 3000 ft

METAR: LIPS 302255Z /////KT 6000 BKN030 06/03 Q1020 RMK BKN VIS MIN 6000 WIND THR26 04004KT WIND THR08 08005KT WHT

Time: 01:39 (23:39 UTC)

Forecast

The report was made 6 hours and 39 minutes ago, at 17:00 UTC
Forecast valid from 30 at 18 UTC to 31 at 03 UTC
Wind 15 kt from the East/Northeast
Visibility 10 km or more
Scattered clouds at a height of 2500 ft
Broken clouds at a height of 6000 ft
Temporary
from 30 at 18 UTC to 30 at 24 UTC
Visibility: 5000 m
Broken clouds at a height of 2000 ft
Broken clouds at a height of 4000 ft
rain, mist

TAF: LIPS 301700Z 3018/3103 07015KT 9999 SCT025 BKN060 TEMPO 3018/3024 5000 RA BR BKN020 BKN040

Weather observations and forecasts of more than 4000 airports (METAR and TAF reports).

The available stations are represented by yellow and red dots on the map.

Hover mouse over dot to see the name of the station.

Then click to see weather observations and forecasts.

To change the map : click on the green buttons with a black cross to zoom in, on the green button with a dash to zoom out, or on the green arrows for adjacent maps.


METAR-TAF: